createdAt,value
2023-04-26T00:00:00.217Z,5.87
2023-04-26T00:05:05.337Z,6.31
2023-04-26T00:10:10.904Z,6.35
2023-04-26T00:15:16.210Z,6.33
2023-04-26T00:20:20.436Z,6.49
2023-04-26T00:25:24.304Z,6.55
2023-04-26T00:30:29.654Z,6.31
2023-04-26T00:35:33.484Z,6.32
2023-04-26T00:40:37.460Z,6.00
2023-04-26T00:45:43.097Z,6.46
2023-04-26T00:50:48.537Z,5.93
2023-04-26T00:55:53.815Z,6.81
2023-04-26T01:00:59.546Z,6.57
2023-04-26T01:06:03.426Z,7.24
2023-04-26T01:11:07.790Z,6.30
2023-04-26T01:16:15.238Z,6.68
2023-04-26T01:21:22.301Z,7.13
2023-04-26T01:26:27.690Z,6.40
2023-04-26T01:31:31.656Z,7.03
2023-04-26T01:36:35.693Z,6.68
2023-04-26T01:41:41.331Z,5.74
2023-04-26T01:46:45.398Z,6.23
2023-04-26T01:51:50.072Z,6.88
2023-04-26T01:56:55.355Z,6.43
2023-04-26T02:01:59.371Z,6.13
2023-04-26T02:07:03.610Z,6.15
2023-04-26T02:12:09.027Z,6.19
2023-04-26T02:17:12.926Z,5.91
2023-04-26T02:22:17.569Z,6.17
2023-04-26T02:27:22.862Z,6.39
2023-04-26T02:32:26.871Z,6.74
2023-04-26T02:37:30.855Z,6.58
2023-04-26T02:42:36.101Z,6.58
2023-04-26T02:47:40.312Z,6.67
2023-04-26T02:52:44.311Z,5.96
2023-04-26T02:57:49.805Z,6.64
2023-04-26T03:02:53.924Z,6.21
2023-04-26T03:07:58.636Z,5.85
2023-04-26T03:13:04.530Z,6.26
2023-04-26T03:18:08.697Z,6.15
2023-04-26T03:23:13.252Z,6.05
2023-04-26T03:28:18.612Z,5.70
2023-04-26T03:33:22.904Z,5.55
2023-04-26T03:38:27.008Z,5.47
2023-04-26T03:43:32.598Z,6.16
2023-04-26T03:48:37.447Z,5.88
2023-04-26T03:53:42.538Z,6.38
2023-04-26T03:58:47.938Z,6.36
2023-04-26T04:03:52.132Z,6.28
2023-04-26T04:08:56.396Z,6.47
2023-04-26T04:14:02.973Z,6.24
2023-04-26T04:19:06.985Z,6.18
2023-04-26T04:24:11.547Z,6.07
2023-04-26T04:29:16.879Z,5.81
2023-04-26T04:34:20.969Z,6.63
2023-04-26T04:39:26.824Z,6.42
2023-04-26T04:44:32.754Z,6.23
2023-04-26T04:49:37.525Z,6.55
2023-04-26T04:54:41.552Z,6.33
2023-04-26T04:59:47.196Z,6.45
2023-04-26T05:04:51.521Z,6.75
2023-04-26T05:09:56.318Z,6.40
2023-04-26T05:15:01.877Z,7.07
2023-04-26T05:20:06.994Z,6.74
2023-04-26T05:25:11.882Z,7.00
2023-04-26T05:30:18.239Z,7.71
2023-04-26T05:35:26.348Z,6.51
2023-04-26T05:40:30.350Z,7.07
2023-04-26T05:45:35.975Z,6.53
2023-04-26T05:50:40.176Z,6.42
2023-04-26T05:55:44.870Z,6.55
2023-04-26T06:00:50.378Z,6.59
2023-04-26T06:05:55.250Z,6.53
2023-04-26T06:11:00.399Z,7.22
2023-04-26T06:16:07.154Z,7.14
2023-04-26T06:21:11.045Z,7.21
2023-04-26T06:26:14.969Z,7.12
2023-04-26T06:31:21.904Z,6.94
2023-04-26T06:36:28.259Z,6.63
2023-04-26T06:41:32.383Z,7.38
2023-04-26T06:46:38.358Z,7.13
2023-04-26T06:51:45.141Z,7.52
2023-04-26T06:56:49.006Z,6.67
2023-04-26T07:01:54.529Z,6.55
2023-04-26T07:06:58.468Z,6.46
2023-04-26T07:12:02.649Z,6.47
2023-04-26T07:17:08.040Z,7.08
2023-04-26T07:22:12.163Z,7.45
2023-04-26T07:27:16.426Z,8.11
2023-04-26T07:32:21.743Z,7.67
2023-04-26T07:37:25.672Z,7.02
2023-04-26T07:42:29.666Z,7.93
2023-04-26T07:47:34.985Z,7.55
2023-04-26T07:52:39.018Z,8.46
2023-04-26T07:57:43.241Z,8.14
2023-04-26T08:02:48.679Z,8.04
2023-04-26T08:07:52.801Z,8.12
2023-04-26T08:12:58.299Z,8.25
2023-04-26T08:18:03.890Z,8.47
2023-04-26T08:23:08.173Z,8.98
2023-04-26T08:28:14.597Z,8.46
2023-04-26T08:33:20.655Z,8.59
2023-04-26T08:38:24.994Z,8.10
2023-04-26T08:43:29.709Z,9.15
2023-04-26T08:48:37.564Z,8.66
2023-04-26T08:53:43.128Z,8.78
2023-04-26T08:58:47.277Z,7.85
2023-04-26T09:03:53.054Z,8.37
2023-04-26T09:08:58.785Z,9.23
2023-04-26T09:14:02.707Z,9.99
2023-04-26T09:19:08.196Z,9.06
2023-04-26T09:24:12.449Z,8.93
2023-04-26T09:29:17.877Z,8.00
2023-04-26T09:34:23.250Z,9.03
2023-04-26T09:39:34.363Z,8.75
2023-04-26T09:44:39.204Z,8.71
2023-04-26T09:49:48.918Z,9.22
2023-04-26T09:54:54.975Z,9.53
2023-04-26T10:00:00.971Z,9.82
2023-04-26T10:05:08.884Z,8.83
2023-04-26T10:10:13.662Z,8.29
2023-04-26T10:15:19.761Z,8.39
2023-04-26T10:20:28.360Z,8.34
2023-04-26T10:25:40.318Z,9.18
2023-04-26T10:30:57.647Z,9.12
2023-04-26T10:36:13.558Z,9.22
2023-04-26T10:41:36.119Z,9.33
2023-04-26T10:46:43.358Z,8.59
2023-04-26T10:52:17.204Z,9.12
2023-04-26T10:57:21.840Z,9.31
2023-04-26T11:02:48.319Z,9.84
2023-04-26T11:08:05.176Z,9.63
2023-04-26T11:13:09.203Z,9.61
2023-04-26T11:18:13.222Z,8.91
2023-04-26T11:23:19.872Z,8.48
2023-04-26T11:28:24.349Z,9.01
2023-04-26T11:33:28.484Z,9.96
2023-04-26T11:38:33.820Z,9.53
2023-04-26T11:43:39.019Z,9.26
2023-04-26T11:48:43.547Z,9.76
2023-04-26T11:53:48.763Z,9.48
2023-04-26T11:58:53.985Z,10.09
2023-04-26T12:03:59.681Z,9.97
2023-04-26T12:09:06.424Z,10.70
2023-04-26T12:14:11.587Z,10.54
2023-04-26T12:19:17.239Z,9.75
2023-04-26T12:24:26.665Z,9.90
2023-04-26T12:29:32.020Z,8.70
2023-04-26T12:34:36.005Z,8.89
2023-04-26T12:39:41.344Z,8.94
2023-04-26T12:44:45.312Z,8.83
2023-04-26T12:49:49.217Z,8.88
2023-04-26T12:54:54.756Z,9.03
2023-04-26T12:59:58.813Z,9.71
2023-04-26T13:05:06.510Z,12.22
2023-04-26T13:10:13.315Z,11.27
2023-04-26T13:15:17.925Z,11.70
2023-04-26T13:20:23.195Z,13.20
2023-04-26T13:25:30.387Z,10.99
2023-04-26T13:30:34.353Z,10.01
2023-04-26T13:35:38.270Z,8.95
2023-04-26T13:40:43.602Z,9.52
2023-04-26T13:45:47.531Z,9.93
2023-04-26T13:50:51.532Z,10.05
2023-04-26T13:55:56.804Z,9.91
2023-04-26T14:01:01.676Z,11.29
2023-04-26T14:06:06.087Z,13.07
2023-04-26T14:11:12.129Z,10.53
2023-04-26T14:16:17.358Z,9.74
2023-04-26T14:21:21.472Z,9.37
2023-04-26T14:26:27.475Z,9.58
2023-04-26T14:31:31.961Z,8.61
2023-04-26T14:36:36.894Z,11.82
2023-04-26T14:41:43.666Z,12.31
2023-04-26T14:46:47.776Z,12.33
2023-04-26T14:51:55.911Z,13.28
2023-04-26T14:57:01.469Z,12.31
2023-04-26T15:02:05.724Z,11.17
2023-04-26T15:07:15.283Z,11.79
2023-04-26T15:12:26.283Z,12.15
2023-04-26T15:17:33.025Z,10.38
2023-04-26T15:22:38.746Z,10.44
2023-04-26T15:27:45.955Z,11.09
2023-04-26T15:32:50.627Z,10.94
2023-04-26T15:37:54.834Z,9.35
2023-04-26T15:43:00.156Z,8.84
2023-04-26T15:48:04.338Z,9.76
2023-04-26T15:53:08.288Z,10.14
2023-04-26T15:58:13.649Z,10.91
2023-04-26T16:03:18.203Z,11.53
2023-04-26T16:08:39.605Z,10.65
2023-04-26T16:13:45.801Z,10.86
2023-04-26T16:18:49.748Z,10.35
2023-04-26T16:23:53.651Z,10.31
2023-04-26T16:28:58.953Z,9.59
2023-04-26T16:34:03.014Z,7.91
2023-04-26T16:39:07.714Z,8.26
2023-04-26T16:44:13.131Z,7.91
2023-04-26T16:49:17.127Z,8.22
2023-04-26T16:54:21.419Z,7.75
2023-04-26T16:59:27.598Z,7.71
2023-04-26T17:04:32.161Z,7.56
2023-04-26T17:09:38.573Z,7.41
2023-04-26T17:14:44.133Z,7.79
2023-04-26T17:19:48.109Z,7.86
2023-04-26T17:24:52.080Z,8.21
2023-04-26T17:29:57.433Z,8.88
2023-04-26T17:35:01.460Z,8.58
2023-04-26T17:40:07.791Z,8.55
2023-04-26T17:45:14.829Z,7.83
2023-04-26T17:50:21.174Z,8.19
2023-04-26T17:55:25.219Z,7.30
2023-04-26T18:00:30.556Z,7.66
2023-04-26T18:05:34.684Z,7.38
2023-04-26T18:10:38.683Z,7.64
2023-04-26T18:15:44.240Z,7.74
2023-04-26T18:20:48.152Z,6.98
2023-04-26T18:25:52.134Z,7.29
2023-04-26T18:30:59.101Z,7.27
2023-04-26T18:36:03.084Z,7.60
2023-04-26T18:41:07.420Z,7.25
2023-04-26T18:46:12.855Z,6.91
2023-04-26T18:51:16.996Z,7.05
2023-04-26T18:56:21.027Z,5.83
2023-04-26T19:01:26.641Z,6.30
2023-04-26T19:06:31.562Z,6.46
2023-04-26T19:11:35.469Z,6.52
2023-04-26T19:16:40.856Z,6.32
2023-04-26T19:21:44.837Z,6.40
2023-04-26T19:26:48.727Z,6.51
2023-04-26T19:31:54.350Z,6.57
2023-04-26T19:36:58.556Z,6.17
2023-04-26T19:42:03.322Z,5.68
2023-04-26T19:47:09.018Z,5.72
2023-04-26T19:52:13.523Z,5.84
2023-04-26T19:57:17.690Z,5.40
2023-04-26T20:02:23.146Z,4.79
2023-04-26T20:07:27.679Z,4.96
2023-04-26T20:12:31.824Z,5.05
2023-04-26T20:17:37.564Z,5.11
2023-04-26T20:22:42.087Z,4.64
2023-04-26T20:27:47.218Z,4.23
2023-04-26T20:32:52.979Z,4.27
2023-04-26T20:37:57.594Z,4.67
2023-04-26T20:43:01.989Z,5.31
2023-04-26T20:48:07.820Z,5.54
2023-04-26T20:53:11.629Z,4.78
2023-04-26T20:58:15.642Z,4.87
2023-04-26T21:03:21.112Z,5.09
2023-04-26T21:08:25.369Z,4.78
2023-04-26T21:13:30.307Z,5.16
2023-04-26T21:18:35.993Z,5.27
2023-04-26T21:23:40.028Z,4.76
2023-04-26T21:28:43.989Z,4.73
2023-04-26T21:33:49.832Z,4.81
2023-04-26T21:38:53.810Z,4.77
2023-04-26T21:43:58.760Z,4.74
2023-04-26T21:49:04.087Z,4.53
2023-04-26T21:54:08.272Z,4.93
2023-04-26T21:59:12.557Z,5.28
2023-04-26T22:04:18.213Z,6.07
2023-04-26T22:09:22.575Z,5.28
2023-04-26T22:14:26.906Z,4.50
2023-04-26T22:19:32.226Z,5.42
2023-04-26T22:24:36.296Z,5.53
2023-04-26T22:29:40.511Z,5.98
2023-04-26T22:34:45.992Z,5.42
2023-04-26T22:39:50.254Z,5.75
2023-04-26T22:44:54.187Z,6.28
2023-04-26T22:49:59.693Z,6.56
2023-04-26T22:55:03.994Z,5.39
2023-04-26T23:00:12.644Z,6.11
2023-04-26T23:05:18.594Z,5.60
2023-04-26T23:10:22.804Z,5.77
2023-04-26T23:15:27.156Z,5.89
2023-04-26T23:20:32.507Z,5.51
2023-04-26T23:25:36.521Z,5.94
2023-04-26T23:30:40.780Z,5.85
2023-04-26T23:35:46.203Z,6.33
2023-04-26T23:40:50.250Z,6.48
2023-04-26T23:45:54.258Z,6.24
2023-04-26T23:51:00.338Z,6.03
2023-04-26T23:56:04.518Z,6.38
